Time;durP1;ratioP1;P1;durP2;ratioP2;P2;SDS_P1;SDS_P2;PMS_P1;PMS_P2;Temp;Humidity;BMP_temperature;BMP_pressure;BME280_temperature;BME280_humidity;BME280_pressure;Samples;Min_cycle;Max_cycle;Signal;HPM_P1;HPM_P2
2021/01/31 00:00:56;;;;;;;7.77;2.60;;;-2.50;99.90;;;;;;4896283;29;20216;-81
2021/01/31 00:03:25;;;;;;;7.20;2.23;;;-2.50;99.90;;;;;;4896553;29;20440;-81
2021/01/31 00:05:53;;;;;;;7.87;2.70;;;-2.40;99.90;;;;;;4896092;29;20184;-81
2021/01/31 00:08:21;;;;;;;7.80;2.60;;;-2.40;99.90;;;;;;4895951;29;20188;-82
2021/01/31 00:10:48;;;;;;;6.77;2.57;;;-2.30;99.90;;;;;;4896333;29;20185;-80
2021/01/31 00:13:14;;;;;;;6.87;2.63;;;-2.30;99.90;;;;;;4896445;29;20177;-80
2021/01/31 00:15:43;;;;;;;6.43;1.90;;;-2.20;99.90;;;;;;4896439;29;20543;-80
2021/01/31 00:18:09;;;;;;;7.83;2.80;;;-2.30;99.90;;;;;;4896682;29;20662;-80
2021/01/31 00:20:37;;;;;;;7.57;2.60;;;-2.20;99.90;;;;;;4897067;29;20201;-81
2021/01/31 00:23:04;;;;;;;7.50;2.67;;;-2.20;99.90;;;;;;4899015;29;20219;-80
2021/01/31 00:25:29;;;;;;;9.10;3.10;;;-2.20;99.90;;;;;;4899710;29;20177;-80
2021/01/31 00:27:55;;;;;;;7.10;2.60;;;-2.20;99.90;;;;;;4899910;29;20260;-81
2021/01/31 00:30:27;;;;;;;6.80;2.30;;;-2.10;99.90;;;;;;4900755;29;20197;-81
2021/01/31 00:32:52;;;;;;;8.70;2.70;;;-2.00;99.90;;;;;;4900174;29;20180;-81
2021/01/31 00:35:21;;;;;;;6.83;2.67;;;-2.00;99.90;;;;;;4899925;29;20191;-81
2021/01/31 00:37:47;;;;;;;6.57;2.33;;;-2.00;99.90;;;;;;4899241;29;20189;-81
2021/01/31 00:40:13;;;;;;;7.30;2.60;;;-2.00;99.90;;;;;;4899636;29;20244;-82
2021/01/31 00:42:39;;;;;;;9.47;2.47;;;-2.00;99.90;;;;;;4905666;29;20657;-81
2021/01/31 00:45:08;;;;;;;7.57;2.50;;;-1.90;99.90;;;;;;4925656;29;20210;-82
2021/01/31 00:47:34;;;;;;;6.43;2.60;;;-1.80;99.90;;;;;;4918826;29;20177;-82
2021/01/31 00:49:59;;;;;;;8.47;2.80;;;-1.80;99.90;;;;;;4923810;29;20575;-82
2021/01/31 00:52:25;;;;;;;9.03;2.90;;;-1.80;99.90;;;;;;4926334;29;20559;-81
2021/01/31 00:54:50;;;;;;;7.50;3.07;;;-1.70;99.90;;;;;;4923020;29;20184;-82
2021/01/31 00:57:16;;;;;;;8.47;3.10;;;-1.80;99.90;;;;;;4927446;29;20191;-82
2021/01/31 00:59:42;;;;;;;8.70;3.37;;;-1.80;99.90;;;;;;4927326;29;20266;-82
2021/01/31 01:02:11;;;;;;;7.07;2.70;;;-1.70;99.90;;;;;;4928455;29;20215;-82
2021/01/31 01:04:36;;;;;;;7.40;2.80;;;-1.70;99.90;;;;;;4930569;29;20267;-82
2021/01/31 01:07:02;;;;;;;8.43;2.90;;;-1.70;99.90;;;;;;4933105;29;20180;-83
2021/01/31 01:09:28;;;;;;;11.87;4.30;;;-1.70;99.90;;;;;;4926910;29;20757;-82
2021/01/31 01:11:54;;;;;;;7.77;2.93;;;-1.60;99.90;;;;;;4928183;29;20180;-83
2021/01/31 01:14:19;;;;;;;8.07;2.80;;;-1.60;99.90;;;;;;4930325;29;20600;-83
2021/01/31 01:16:45;;;;;;;10.43;3.57;;;-1.60;99.90;;;;;;4928557;29;20184;-82
2021/01/31 01:19:10;;;;;;;8.90;2.87;;;-1.60;99.90;;;;;;4929149;29;20697;-82
2021/01/31 01:21:36;;;;;;;7.87;2.97;;;-1.60;99.90;;;;;;4924574;29;20212;-81
2021/01/31 01:24:02;;;;;;;9.77;3.40;;;-1.50;99.90;;;;;;4924454;29;20675;-81
2021/01/31 01:26:29;;;;;;;11.53;3.57;;;-1.40;99.90;;;;;;4919620;29;20191;-81
2021/01/31 01:28:55;;;;;;;9.23;3.30;;;-1.40;99.90;;;;;;4919867;29;20675;-82
2021/01/31 01:31:20;;;;;;;7.70;2.87;;;-1.40;99.90;;;;;;4919358;29;20210;-81
2021/01/31 01:33:46;;;;;;;8.93;3.23;;;-1.40;99.90;;;;;;4918767;29;20200;-81
2021/01/31 01:36:11;;;;;;;10.00;3.90;;;-1.30;99.90;;;;;;4920352;29;20226;-81
2021/01/31 01:38:37;;;;;;;9.47;3.30;;;-1.30;99.90;;;;;;4920332;29;20207;-81
2021/01/31 01:41:03;;;;;;;8.33;3.30;;;-1.20;99.90;;;;;;4922300;29;20212;-82
2021/01/31 01:43:31;;;;;;;10.33;3.77;;;-1.20;99.90;;;;;;4922477;29;20665;-83
2021/01/31 01:46:19;;;;;;;8.40;3.50;;;-1.20;99.90;;;;;;4926193;29;20177;-82
2021/01/31 01:48:46;;;;;;;9.13;3.33;;;-1.20;99.90;;;;;;4925678;29;20220;-82
2021/01/31 01:51:14;;;;;;;10.77;3.47;;;-1.20;99.90;;;;;;4927473;29;20220;-82
2021/01/31 01:53:41;;;;;;;9.27;3.60;;;-1.20;99.90;;;;;;4931123;29;20183;-83
2021/01/31 01:56:18;;;;;;;8.50;3.30;;;-1.20;99.90;;;;;;4925882;29;20183;-81
2021/01/31 01:58:45;;;;;;;8.83;3.57;;;-1.20;99.90;;;;;;4927563;29;20226;-81
2021/01/31 02:01:11;;;;;;;9.50;4.00;;;-1.20;99.90;;;;;;4927289;29;20204;-83
2021/01/31 02:03:41;;;;;;;9.60;3.83;;;-1.20;99.90;;;;;;4921006;29;20655;-81
2021/01/31 02:06:14;;;;;;;8.80;3.60;;;-1.20;99.90;;;;;;4919240;29;20172;-82
2021/01/31 02:08:41;;;;;;;9.80;3.13;;;-1.20;99.90;;;;;;4921583;29;20239;-82
2021/01/31 02:11:07;;;;;;;7.30;2.70;;;-1.20;99.90;;;;;;4919137;29;20188;-81
2021/01/31 02:13:35;;;;;;;7.40;2.80;;;-1.10;99.90;;;;;;4918134;29;20709;-82
2021/01/31 02:16:05;;;;;;;10.53;4.07;;;-1.10;99.90;;;;;;4920136;29;20181;-81
2021/01/31 02:18:48;;;;;;;7.37;2.70;;;-1.10;99.90;;;;;;4919176;29;20259;-81
2021/01/31 02:21:35;;;;;;;7.70;2.90;;;-1.00;99.90;;;;;;4917611;29;20208;-81
2021/01/31 02:24:35;;;;;;;10.30;2.67;;;-1.00;99.90;;;;;;4917668;29;20204;-81
2021/01/31 02:27:15;;;;;;;8.50;3.30;;;-0.90;99.90;;;;;;4917426;29;20176;-82
2021/01/31 02:29:51;;;;;;;8.60;2.70;;;-0.80;99.90;;;;;;4916984;29;20212;-81
2021/01/31 02:32:32;;;;;;;8.33;2.97;;;-0.80;99.90;;;;;;4921984;29;20179;-81
2021/01/31 02:35:06;;;;;;;6.90;2.33;;;-0.70;99.90;;;;;;4929931;29;20188;-82
2021/01/31 02:37:49;;;;;;;8.13;2.70;;;-0.70;99.90;;;;;;4929833;29;20184;-81
2021/01/31 02:40:46;;;;;;;10.23;2.87;;;-0.60;99.90;;;;;;4928120;29;20216;-82
2021/01/31 02:43:48;;;;;;;8.03;2.67;;;-0.50;99.90;;;;;;4927564;29;20184;-81
2021/01/31 02:46:31;;;;;;;7.37;2.53;;;-0.40;99.90;;;;;;4880973;29;20650;-82
2021/01/31 02:49:02;;;;;;;7.00;2.67;;;-0.30;99.90;;;;;;4931387;29;20196;-82
2021/01/31 02:51:56;;;;;;;8.80;2.83;;;-0.40;99.90;;;;;;4932663;29;20734;-82
2021/01/31 02:54:50;;;;;;;6.80;2.50;;;-0.30;99.90;;;;;;4932925;29;20196;-83
2021/01/31 02:57:22;;;;;;;10.73;3.03;;;-0.30;99.90;;;;;;4933078;29;20186;-82
2021/01/31 03:00:01;;;;;;;7.43;2.57;;;-0.20;99.90;;;;;;4930333;29;20208;-83
2021/01/31 03:02:33;;;;;;;6.77;2.37;;;-0.20;99.90;;;;;;4928297;29;20248;-82
2021/01/31 03:05:13;;;;;;;10.90;2.53;;;-0.10;99.90;;;;;;4927729;29;20197;-83
2021/01/31 03:07:46;;;;;;;5.53;2.10;;;0.00;99.90;;;;;;4919364;29;20186;-82
2021/01/31 03:10:27;;;;;;;6.73;2.40;;;0.00;99.90;;;;;;4919083;29;20204;-82
2021/01/31 03:12:59;;;;;;;5.83;2.13;;;0.10;99.90;;;;;;4921566;29;20184;-81
2021/01/31 03:15:28;;;;;;;5.27;1.73;;;0.10;99.90;;;;;;4920871;29;20251;-82
2021/01/31 03:18:19;;;;;;;7.50;1.80;;;0.20;99.90;;;;;;4922784;29;20188;-81
2021/01/31 03:21:05;;;;;;;7.97;2.10;;;0.20;99.90;;;;;;4922961;29;20215;-82
2021/01/31 03:23:43;;;;;;;5.90;1.97;;;0.30;99.90;;;;;;4922234;29;20205;-82
2021/01/31 03:26:22;;;;;;;7.70;2.27;;;0.30;99.90;;;;;;4921779;29;20271;-82
2021/01/31 03:28:48;;;;;;;7.50;2.27;;;0.30;99.90;;;;;;4918704;29;20211;-82
2021/01/31 03:31:16;;;;;;;5.37;1.63;;;0.40;99.90;;;;;;4919840;29;20200;-82
2021/01/31 03:33:49;;;;;;;5.23;2.00;;;0.40;99.90;;;;;;4919872;29;20180;-82
2021/01/31 03:36:15;;;;;;;5.53;1.67;;;0.40;99.90;;;;;;4921159;29;20180;-83
2021/01/31 03:38:52;;;;;;;3.60;1.50;;;0.40;99.90;;;;;;4922491;29;20202;-83
2021/01/31 03:41:22;;;;;;;5.30;1.77;;;0.40;99.90;;;;;;4924726;29;20216;-82
2021/01/31 03:43:49;;;;;;;6.80;2.27;;;0.50;99.90;;;;;;4928363;29;20192;-82
2021/01/31 03:46:30;;;;;;;5.17;1.77;;;0.40;99.90;;;;;;4924603;29;20184;-83
2021/01/31 03:49:25;;;;;;;6.20;2.03;;;0.40;99.90;;;;;;4923013;29;20200;-83
2021/01/31 03:51:51;;;;;;;5.77;1.60;;;0.40;99.90;;;;;;4921008;29;20208;-83
2021/01/31 03:54:17;;;;;;;7.00;1.80;;;0.40;99.90;;;;;;4925036;29;20183;-82
2021/01/31 03:57:01;;;;;;;6.00;1.70;;;0.40;99.90;;;;;;4923858;29;20185;-82
2021/01/31 03:59:37;;;;;;;4.80;1.70;;;0.40;99.90;;;;;;4924801;29;20215;-82
2021/01/31 04:02:06;;;;;;;5.67;1.40;;;0.40;99.90;;;;;;4925651;29;20647;-82
2021/01/31 04:04:36;;;;;;;6.40;1.50;;;0.50;99.90;;;;;;4926306;29;20184;-83
2021/01/31 04:07:04;;;;;;;4.43;1.40;;;0.50;99.90;;;;;;4925369;29;20176;-81
2021/01/31 04:09:33;;;;;;;5.47;1.47;;;0.40;99.90;;;;;;4925259;29;20290;-84
2021/01/31 04:12:05;;;;;;;5.70;1.47;;;0.50;99.90;;;;;;4926433;29;20662;-81
2021/01/31 04:14:49;;;;;;;5.47;1.47;;;0.40;99.90;;;;;;4933166;29;20236;-83
2021/01/31 04:17:15;;;;;;;6.13;1.50;;;0.30;99.90;;;;;;4931933;29;20215;-83
2021/01/31 04:19:42;;;;;;;5.03;1.50;;;0.20;99.90;;;;;;4933248;29;20211;-83
2021/01/31 04:22:08;;;;;;;5.33;1.57;;;0.20;99.90;;;;;;4934473;29;20227;-83
2021/01/31 04:24:34;;;;;;;5.00;1.10;;;0.20;99.90;;;;;;4932909;29;20184;-84
2021/01/31 04:27:01;;;;;;;3.63;1.00;;;0.20;99.90;;;;;;4938949;29;20578;-82
2021/01/31 04:29:27;;;;;;;5.17;1.43;;;0.20;99.90;;;;;;4939090;29;20201;-83
2021/01/31 04:31:53;;;;;;;6.27;1.20;;;0.20;99.90;;;;;;4938998;29;20215;-83
2021/01/31 04:34:21;;;;;;;4.70;1.20;;;0.10;99.90;;;;;;4938139;29;20184;-83
2021/01/31 04:36:47;;;;;;;4.50;1.37;;;0.20;99.90;;;;;;4939006;29;20180;-83
2021/01/31 04:39:14;;;;;;;3.57;1.30;;;0.20;99.90;;;;;;4940098;29;20220;-83
2021/01/31 04:41:42;;;;;;;5.97;1.10;;;0.20;99.90;;;;;;4939962;29;20208;-83
2021/01/31 04:44:12;;;;;;;4.20;1.20;;;0.20;99.90;;;;;;4937567;29;20161;-87
2021/01/31 04:46:40;;;;;;;5.93;1.30;;;0.20;99.90;;;;;;4920148;29;20165;-86
2021/01/31 04:49:47;;;;;;;4.30;1.20;;;0.20;99.90;;;;;;4920717;29;20189;-85
2021/01/31 04:52:53;;;;;;;7.30;1.30;;;0.20;99.90;;;;;;4916982;29;20191;-85
2021/01/31 04:55:45;;;;;;;3.80;0.90;;;0.10;99.90;;;;;;4920648;29;20177;-85
2021/01/31 04:58:31;;;;;;;4.80;1.30;;;0.10;99.90;;;;;;4921330;29;20150;-86
2021/01/31 05:01:20;;;;;;;2.93;0.90;;;0.10;99.90;;;;;;4919519;29;20216;-82
2021/01/31 05:04:03;;;;;;;3.73;1.10;;;0.00;99.90;;;;;;4920398;29;20245;-84
2021/01/31 05:06:38;;;;;;;4.93;0.90;;;0.00;99.90;;;;;;4919908;29;20169;-83
2021/01/31 05:09:04;;;;;;;3.47;0.80;;;-0.10;99.90;;;;;;4918980;29;20180;-85
2021/01/31 05:11:36;;;;;;;5.70;1.00;;;-0.20;99.90;;;;;;4917719;29;20217;-83
2021/01/31 05:14:43;;;;;;;3.70;1.10;;;-0.10;99.90;;;;;;4908109;29;20185;-83
2021/01/31 05:17:09;;;;;;;3.97;0.87;;;-0.30;99.90;;;;;;4841479;29;20198;-83
2021/01/31 05:19:37;;;;;;;3.20;0.70;;;-0.20;99.90;;;;;;4906258;29;20225;-82
2021/01/31 05:22:03;;;;;;;2.73;0.80;;;-0.30;99.90;;;;;;4910765;29;20216;-83
2021/01/31 05:24:29;;;;;;;5.90;0.80;;;-0.30;99.90;;;;;;4911189;29;20185;-83
2021/01/31 05:27:01;;;;;;;2.27;0.50;;;-0.30;99.90;;;;;;4913016;29;20197;-83
2021/01/31 05:29:40;;;;;;;6.03;1.57;;;-0.50;99.90;;;;;;4911199;29;20609;-83
2021/01/31 05:32:09;;;;;;;8.10;1.70;;;-0.50;99.90;;;;;;4908222;29;20208;-82
2021/01/31 05:34:35;;;;;;;5.80;1.43;;;-0.50;99.90;;;;;;4907720;29;20192;-82
2021/01/31 05:37:03;;;;;;;3.20;1.00;;;-0.50;99.90;;;;;;4906724;29;20548;-82
2021/01/31 05:39:44;;;;;;;14.07;1.70;;;-0.40;99.90;;;;;;4906641;29;20200;-82
2021/01/31 05:42:14;;;;;;;4.93;1.23;;;-0.60;99.90;;;;;;4903533;29;20212;-82
2021/01/31 05:44:41;;;;;;;8.27;1.90;;;-0.50;99.90;;;;;;4905370;29;20276;-82
2021/01/31 05:47:24;;;;;;;5.63;1.40;;;-0.50;99.90;;;;;;4904461;29;20177;-82
2021/01/31 05:49:53;;;;;;;3.37;0.73;;;-0.50;99.90;;;;;;4904947;29;20196;-83
2021/01/31 05:52:18;;;;;;;3.57;0.77;;;-0.60;99.90;;;;;;4906370;29;20177;-83
2021/01/31 05:54:45;;;;;;;3.47;0.83;;;-0.60;99.90;;;;;;4907401;29;20591;-84
2021/01/31 05:57:32;;;;;;;6.07;1.30;;;-0.60;99.90;;;;;;4907682;29;20189;-83
2021/01/31 06:00:00;;;;;;;10.07;4.40;;;-0.70;99.90;;;;;;4907204;29;20424;-83
2021/01/31 06:02:32;;;;;;;5.70;2.23;;;-0.80;99.90;;;;;;4908985;29;20195;-85
2021/01/31 06:05:17;;;;;;;8.73;4.20;;;-0.80;99.90;;;;;;4921990;29;20191;-82
2021/01/31 06:07:44;;;;;;;8.27;2.50;;;-0.80;99.90;;;;;;4925851;29;20176;-82
2021/01/31 06:10:16;;;;;;;5.57;1.70;;;-0.90;99.90;;;;;;4924317;29;20207;-82
2021/01/31 06:12:52;;;;;;;5.13;1.30;;;-0.90;99.90;;;;;;4939140;29;20170;-82
2021/01/31 06:15:28;;;;;;;6.43;1.30;;;-1.00;99.90;;;;;;4939697;29;20200;-83
2021/01/31 06:18:30;;;;;;;4.47;1.00;;;-1.00;99.90;;;;;;4941311;29;20188;-82
2021/01/31 06:21:19;;;;;;;6.07;1.10;;;-1.10;99.90;;;;;;4938673;29;20183;-83
2021/01/31 06:23:50;;;;;;;3.77;1.00;;;-1.20;99.90;;;;;;4938208;29;20204;-82
2021/01/31 06:27:05;;;;;;;3.40;0.90;;;-1.10;99.90;;;;;;4935366;29;20160;-82
2021/01/31 06:32:59;;;;;;;5.23;1.10;;;-1.30;99.90;;;;;;4919206;29;20211;-83
2021/01/31 06:35:30;;;;;;;3.20;0.70;;;-1.20;99.90;;;;;;4917838;29;20751;-83
2021/01/31 06:38:02;;;;;;;6.73;1.40;;;-1.10;99.90;;;;;;4918515;29;20173;-82
2021/01/31 06:40:43;;;;;;;5.00;1.20;;;-1.10;99.90;;;;;;4908340;29;20328;-81
2021/01/31 06:43:30;;;;;;;12.97;5.90;;;-1.00;99.90;;;;;;4913003;29;20195;-81
2021/01/31 06:46:31;;;;;;;6.17;2.20;;;-0.90;99.90;;;;;;4916097;29;20191;-81
2021/01/31 06:49:27;;;;;;;6.83;1.93;;;-0.80;99.90;;;;;;4878307;29;20303;-82
2021/01/31 06:52:25;;;;;;;7.97;2.70;;;-0.70;99.90;;;;;;4923442;29;20191;-82
2021/01/31 06:54:58;;;;;;;6.53;2.20;;;-0.70;99.90;;;;;;4922093;29;20188;-81
2021/01/31 06:57:29;;;;;;;8.47;2.40;;;-0.70;99.90;;;;;;4917939;29;20188;-81
2021/01/31 07:00:21;;;;;;;5.70;1.53;;;-0.70;99.90;;;;;;4927863;29;20275;-81
2021/01/31 07:03:19;;;;;;;3.80;1.23;;;-0.70;99.90;;;;;;4935051;29;20181;-82
2021/01/31 07:06:19;;;;;;;5.53;1.37;;;-0.70;99.90;;;;;;4920471;29;20191;-82
2021/01/31 07:09:22;;;;;;;8.13;1.27;;;-0.60;99.90;;;;;;4930935;29;20211;-83
2021/01/31 07:12:08;;;;;;;5.10;1.30;;;-0.50;99.90;;;;;;4921723;29;20188;-81
2021/01/31 07:14:48;;;;;;;2.30;1.03;;;-0.50;99.90;;;;;;4914105;29;20278;-82
2021/01/31 07:17:30;;;;;;;8.17;1.70;;;-0.50;99.90;;;;;;4921128;29;20184;-81
2021/01/31 07:20:21;;;;;;;4.23;1.50;;;-0.50;99.90;;;;;;4924014;29;20212;-82
2021/01/31 07:23:15;;;;;;;6.07;1.60;;;-0.50;99.90;;;;;;4926279;29;20610;-82
2021/01/31 07:25:49;;;;;;;6.63;2.03;;;-0.50;99.90;;;;;;4925055;29;20169;-82
2021/01/31 07:28:37;;;;;;;7.73;1.60;;;-0.50;99.90;;;;;;4935300;29;20208;-83
2021/01/31 07:34:27;;;;;;;7.07;2.60;;;-0.50;99.90;;;;;;4918986;29;20163;-83
2021/01/31 07:37:14;;;;;;;7.00;2.67;;;-0.50;99.90;;;;;;4916796;29;20205;-83
2021/01/31 07:40:14;;;;;;;8.67;2.80;;;-0.50;99.90;;;;;;4914384;29;20189;-82
2021/01/31 07:42:42;;;;;;;7.20;2.90;;;-0.60;99.90;;;;;;4916686;29;20689;-82
2021/01/31 07:45:53;;;;;;;8.97;3.23;;;-0.50;99.90;;;;;;4915209;29;20190;-82
2021/01/31 07:48:32;;;;;;;10.73;3.90;;;-0.70;99.90;;;;;;4924426;29;20230;-82
2021/01/31 07:58:31;;;;;;;7.87;2.13;;;-0.40;99.90;;;;;;4913691;29;20184;-82
2021/01/31 08:20:47;;;;;;;7.93;2.83;;;2.00;99.90;;;;;;5187353;23;20243;-83
2021/01/31 08:23:30;;;;;;;7.43;1.80;;;2.60;99.90;;;;;;4946174;29;20187;-82
2021/01/31 08:25:59;;;;;;;6.10;1.70;;;3.00;99.90;;;;;;4941562;29;20279;-81
2021/01/31 08:28:27;;;;;;;7.40;1.60;;;3.30;99.90;;;;;;4940845;29;20196;-82
2021/01/31 08:31:16;;;;;;;4.87;1.60;;;3.30;99.90;;;;;;4944972;29;20209;-82
2021/01/31 08:33:44;;;;;;;8.30;1.97;;;3.10;99.90;;;;;;4939653;29;20213;-83
2021/01/31 08:36:20;;;;;;;3.83;1.33;;;3.00;99.90;;;;;;4947439;29;20198;-83
2021/01/31 08:38:51;;;;;;;3.20;1.30;;;2.70;99.90;;;;;;4941575;29;20214;-83
2021/01/31 08:41:30;;;;;;;6.73;1.53;;;2.50;99.90;;;;;;4950476;29;20277;-82
2021/01/31 08:44:18;;;;;;;3.97;1.10;;;2.20;99.90;;;;;;4948381;29;20179;-84
2021/01/31 08:47:02;;;;;;;6.13;1.77;;;2.00;99.90;;;;;;4936852;29;20218;-82
2021/01/31 08:49:28;;;;;;;4.73;1.33;;;1.80;99.90;;;;;;4944959;29;20203;-82
2021/01/31 08:52:10;;;;;;;5.30;1.40;;;1.80;99.90;;;;;;4945506;29;20187;-82
2021/01/31 08:54:36;;;;;;;4.03;0.90;;;1.70;99.90;;;;;;4948488;29;20183;-82
2021/01/31 08:57:09;;;;;;;3.27;1.20;;;1.70;99.90;;;;;;4949994;29;20191;-82
2021/01/31 08:59:51;;;;;;;4.47;1.07;;;1.60;99.90;;;;;;4939215;29;20210;-82
2021/01/31 09:02:25;;;;;;;4.33;1.73;;;1.60;99.90;;;;;;4948316;29;20218;-82
2021/01/31 09:04:59;;;;;;;2.50;0.80;;;1.60;99.90;;;;;;4950871;29;20179;-82
2021/01/31 09:07:37;;;;;;;4.20;1.20;;;1.60;99.90;;;;;;4960306;29;20171;-83
2021/01/31 11:27:14;;;;;;;6.90;0.90;;;5.20;99.90;;;;;;4953567;29;20229;-84
2021/01/31 11:29:40;;;;;;;6.73;1.63;;;5.20;99.90;;;;;;4953075;29;20198;-85
2021/01/31 11:32:05;;;;;;;6.37;1.40;;;5.10;99.90;;;;;;4960970;23;20329;-86
2021/01/31 11:34:31;;;;;;;8.03;1.80;;;5.10;99.90;;;;;;4935640;29;20655;-87
2021/01/31 11:36:56;;;;;;;5.07;1.57;;;5.20;99.90;;;;;;4927494;29;20189;-87
2021/01/31 11:39:22;;;;;;;7.90;1.20;;;5.30;99.90;;;;;;4922933;29;20199;-88
2021/01/31 11:41:48;;;;;;;9.80;3.27;;;5.30;99.90;;;;;;4938889;29;20220;-86
2021/01/31 11:44:14;;;;;;;9.77;5.20;;;5.20;99.90;;;;;;4938574;29;20592;-88
2021/01/31 11:46:39;;;;;;;8.47;1.93;;;5.20;99.90;;;;;;4923107;29;20200;-87
2021/01/31 11:49:05;;;;;;;6.17;1.83;;;5.20;99.90;;;;;;4928978;29;20177;-88
2021/01/31 11:51:31;;;;;;;8.93;1.77;;;5.10;99.90;;;;;;4922909;29;20209;-88
2021/01/31 11:53:57;;;;;;;9.77;1.67;;;5.10;99.90;;;;;;4926785;29;20688;-89
2021/01/31 11:56:22;;;;;;;5.47;2.10;;;5.00;99.90;;;;;;4923834;29;20194;-85
2021/01/31 11:58:48;;;;;;;8.00;2.57;;;5.00;99.90;;;;;;4935320;29;20190;-88
2021/01/31 12:01:14;;;;;;;10.97;3.50;;;5.00;99.90;;;;;;4924511;29;20780;-87
2021/01/31 12:03:42;;;;;;;9.17;4.17;;;5.00;99.90;;;;;;4924276;29;20196;-89
2021/01/31 12:06:07;;;;;;;8.33;2.67;;;5.00;99.90;;;;;;4916423;29;20211;-88
2021/01/31 12:08:33;;;;;;;5.50;1.23;;;5.10;99.90;;;;;;4924729;29;20176;-87
2021/01/31 12:10:58;;;;;;;2.87;1.00;;;5.00;99.90;;;;;;4924028;29;20702;-88
2021/01/31 12:13:24;;;;;;;7.20;0.87;;;5.00;99.90;;;;;;4923278;29;20196;-87
2021/01/31 12:15:49;;;;;;;6.47;0.80;;;5.00;99.90;;;;;;4923725;29;20193;-88
2021/01/31 12:18:15;;;;;;;7.73;1.30;;;5.10;99.90;;;;;;4924551;29;20200;-88
2021/01/31 12:20:40;;;;;;;5.30;1.10;;;5.00;99.90;;;;;;4926463;29;20690;-87
2021/01/31 12:23:06;;;;;;;3.97;0.83;;;5.00;99.90;;;;;;4928611;29;20219;-88
2021/01/31 12:25:31;;;;;;;3.30;0.80;;;5.00;99.90;;;;;;4926822;29;20180;-85
2021/01/31 12:27:58;;;;;;;5.07;1.17;;;5.20;99.90;;;;;;4942126;29;20216;-87
2021/01/31 12:30:28;;;;;;;6.73;2.90;;;5.30;99.90;;;;;;4926302;29;21501;-86
2021/01/31 12:32:57;;;;;;;10.27;3.23;;;5.30;99.90;;;;;;4927329;29;20209;-88
2021/01/31 12:35:22;;;;;;;5.97;2.37;;;5.10;99.90;;;;;;4931214;29;20210;-87
2021/01/31 12:37:48;;;;;;;7.53;2.20;;;5.00;99.90;;;;;;4932343;29;20190;-85
2021/01/31 12:40:15;;;;;;;9.13;2.77;;;4.90;99.90;;;;;;4928032;29;20760;-86
2021/01/31 12:42:43;;;;;;;9.40;1.80;;;4.90;99.90;;;;;;4928135;29;20192;-87
2021/01/31 12:45:09;;;;;;;9.17;2.80;;;4.80;99.90;;;;;;4929325;29;20197;-87
2021/01/31 12:47:35;;;;;;;8.23;2.80;;;4.60;99.90;;;;;;4937003;29;20192;-87
2021/01/31 12:50:00;;;;;;;8.03;3.33;;;4.50;99.90;;;;;;4937495;29;20649;-86
2021/01/31 12:52:26;;;;;;;7.57;3.17;;;4.60;99.90;;;;;;4932782;29;20204;-86
2021/01/31 12:54:51;;;;;;;8.67;2.80;;;4.70;99.90;;;;;;4930935;29;20248;-85
2021/01/31 12:57:17;;;;;;;7.37;2.60;;;4.80;99.90;;;;;;4932492;29;20180;-86
2021/01/31 12:59:42;;;;;;;11.03;2.97;;;4.90;99.90;;;;;;4924206;29;20200;-86
2021/01/31 13:02:08;;;;;;;9.20;2.80;;;4.80;99.90;;;;;;4935905;29;20232;-86
2021/01/31 13:04:34;;;;;;;10.07;3.43;;;4.80;99.90;;;;;;4929273;29;20193;-86
2021/01/31 13:06:59;;;;;;;7.70;3.07;;;4.70;99.90;;;;;;4941947;29;20193;-87
2021/01/31 13:09:29;;;;;;;7.77;2.93;;;4.60;99.90;;;;;;4928970;29;20556;-86
2021/01/31 13:11:56;;;;;;;10.17;3.57;;;4.60;99.90;;;;;;4928516;29;20196;-86
2021/01/31 13:14:22;;;;;;;10.17;3.50;;;4.70;99.90;;;;;;4928703;29;20185;-86
2021/01/31 13:16:47;;;;;;;10.30;2.27;;;4.70;99.90;;;;;;4925559;29;20197;-87
2021/01/31 13:19:13;;;;;;;6.50;1.87;;;4.60;99.90;;;;;;4932522;29;20674;-86
2021/01/31 13:21:38;;;;;;;7.73;1.80;;;4.60;99.90;;;;;;4930643;29;20212;-86
2021/01/31 13:24:04;;;;;;;7.60;2.50;;;4.60;99.90;;;;;;4945452;29;20229;-86
2021/01/31 13:26:29;;;;;;;11.13;3.90;;;4.70;99.90;;;;;;4930515;29;20249;-86
2021/01/31 13:28:55;;;;;;;9.37;4.27;;;4.70;99.90;;;;;;4928397;29;20216;-87
2021/01/31 13:31:21;;;;;;;7.07;2.37;;;4.70;99.90;;;;;;4939728;29;20216;-86
2021/01/31 13:33:46;;;;;;;10.50;2.43;;;4.70;99.90;;;;;;4928461;29;20192;-84
2021/01/31 13:36:12;;;;;;;8.57;2.90;;;4.60;99.90;;;;;;4929342;29;20196;-86
2021/01/31 13:38:38;;;;;;;5.60;2.07;;;4.60;99.90;;;;;;4926369;29;20691;-86
2021/01/31 13:41:03;;;;;;;8.70;2.10;;;4.60;99.90;;;;;;4927877;29;20212;-86
2021/01/31 13:43:30;;;;;;;7.23;2.53;;;4.60;99.90;;;;;;4924871;29;20202;-86
2021/01/31 13:45:55;;;;;;;11.07;2.10;;;4.70;99.90;;;;;;4927434;29;20640;-87
2021/01/31 13:48:21;;;;;;;8.60;2.33;;;4.70;99.90;;;;;;4927591;29;20193;-86
2021/01/31 13:50:46;;;;;;;7.13;1.77;;;4.70;99.90;;;;;;4930289;29;20217;-87
2021/01/31 13:53:12;;;;;;;6.73;2.10;;;4.70;99.90;;;;;;4929069;29;20189;-86
2021/01/31 13:55:37;;;;;;;8.10;2.70;;;4.70;99.90;;;;;;4943913;29;20655;-87
2021/01/31 13:58:03;;;;;;;10.43;3.13;;;4.70;99.90;;;;;;4928585;29;20180;-86
2021/01/31 14:00:29;;;;;;;10.10;2.83;;;4.70;99.90;;;;;;4932203;29;20205;-86
2021/01/31 14:02:54;;;;;;;7.00;2.10;;;4.70;99.90;;;;;;4929619;29;20240;-87
2021/01/31 14:05:21;;;;;;;7.70;2.30;;;4.60;99.90;;;;;;4928620;29;20191;-86
2021/01/31 14:07:47;;;;;;;7.97;2.10;;;4.70;99.90;;;;;;4926970;29;20177;-87
2021/01/31 14:10:15;;;;;;;6.30;1.90;;;4.60;99.90;;;;;;4927138;29;20187;-86
2021/01/31 14:12:40;;;;;;;10.37;1.70;;;4.60;99.90;;;;;;4929303;29;20239;-86
2021/01/31 14:15:07;;;;;;;7.90;1.93;;;4.60;99.90;;;;;;4926866;29;20564;-85
2021/01/31 14:17:33;;;;;;;10.57;1.70;;;4.60;99.90;;;;;;4927485;29;20185;-87
2021/01/31 14:19:58;;;;;;;5.03;1.53;;;4.60;99.90;;;;;;4922337;29;20184;-85
2021/01/31 14:22:23;;;;;;;3.73;1.40;;;4.50;99.90;;;;;;4929435;29;20583;-86
2021/01/31 14:24:50;;;;;;;7.97;1.80;;;4.50;99.90;;;;;;4930089;29;20186;-87
2021/01/31 14:27:16;;;;;;;8.33;1.93;;;4.40;99.90;;;;;;4943193;29;20203;-85
2021/01/31 14:29:42;;;;;;;8.70;2.07;;;4.50;99.90;;;;;;4926742;29;20216;-85
2021/01/31 14:32:07;;;;;;;11.53;3.03;;;4.40;99.90;;;;;;4928532;29;20586;-88
2021/01/31 14:34:34;;;;;;;8.23;1.57;;;4.40;99.90;;;;;;4942739;29;20196;-86
2021/01/31 14:36:59;;;;;;;11.30;2.63;;;4.40;99.90;;;;;;4941683;29;20196;-87
2021/01/31 14:39:25;;;;;;;6.60;1.87;;;4.30;99.90;;;;;;4926963;29;20216;-86
2021/01/31 14:41:51;;;;;;;8.80;2.93;;;4.20;99.90;;;;;;4933440;29;20308;-86
2021/01/31 14:44:21;;;;;;;11.37;4.07;;;4.30;99.90;;;;;;4926651;29;20202;-85
2021/01/31 14:46:47;;;;;;;11.40;4.10;;;4.20;99.90;;;;;;4941661;29;20185;-87
2021/01/31 14:49:13;;;;;;;12.53;4.50;;;4.30;99.90;;;;;;4939887;29;20185;-86
2021/01/31 14:51:39;;;;;;;10.87;5.10;;;4.30;99.90;;;;;;4935619;29;20206;-87
2021/01/31 14:54:05;;;;;;;9.20;3.10;;;4.20;99.90;;;;;;4940699;29;20196;-86
2021/01/31 14:56:30;;;;;;;9.97;2.73;;;4.20;99.90;;;;;;4926704;29;20610;-86
2021/01/31 14:58:56;;;;;;;8.03;2.80;;;4.20;99.90;;;;;;4929956;29;20176;-85
2021/01/31 15:01:21;;;;;;;7.57;1.90;;;4.20;99.90;;;;;;4924820;29;20220;-86
2021/01/31 15:03:47;;;;;;;7.70;2.17;;;4.20;99.90;;;;;;4925841;29;20178;-86
2021/01/31 15:06:14;;;;;;;7.17;1.63;;;4.20;99.90;;;;;;4927704;29;20675;-87
2021/01/31 15:08:40;;;;;;;7.83;1.33;;;4.20;99.90;;;;;;4925018;29;20185;-87
2021/01/31 15:11:05;;;;;;;5.30;0.90;;;4.10;99.90;;;;;;4924464;29;20230;-86
2021/01/31 15:13:31;;;;;;;5.27;0.90;;;4.10;99.90;;;;;;4925356;29;20177;-85
2021/01/31 15:15:56;;;;;;;7.13;1.50;;;4.10;99.90;;;;;;4926903;29;20216;-87
2021/01/31 15:18:22;;;;;;;6.30;1.03;;;4.10;99.90;;;;;;4941481;29;20181;-87
2021/01/31 15:20:48;;;;;;;3.80;1.30;;;4.00;99.90;;;;;;4924113;29;20729;-86
2021/01/31 15:23:13;;;;;;;5.27;0.90;;;4.00;99.90;;;;;;4929935;29;20168;-86
2021/01/31 15:25:39;;;;;;;5.47;1.00;;;3.90;99.90;;;;;;4921677;29;20213;-86
2021/01/31 15:28:04;;;;;;;3.03;0.90;;;3.90;99.90;;;;;;4931343;29;20185;-86
2021/01/31 15:30:32;;;;;;;10.67;4.20;;;3.90;99.90;;;;;;4923887;29;20309;-86
2021/01/31 15:32:58;;;;;;;48.20;18.03;;;3.80;99.90;;;;;;4922363;29;20180;-84
2021/01/31 15:35:24;;;;;;;43.13;18.83;;;3.70;99.90;;;;;;4925615;29;20191;-84
2021/01/31 15:37:50;;;;;;;33.30;11.87;;;3.70;99.90;;;;;;4928556;29;20207;-85
2021/01/31 15:40:17;;;;;;;15.60;6.55;;;3.60;99.90;;;;;;4915138;29;21014;-87
2021/01/31 15:42:46;;;;;;;13.47;4.57;;;3.70;99.90;;;;;;4919833;29;20181;-86
2021/01/31 15:45:15;;;;;;;14.23;5.67;;;4.00;99.90;;;;;;4919891;29;20210;-87
2021/01/31 15:47:41;;;;;;;11.83;4.83;;;4.50;99.90;;;;;;4913573;29;20190;-86
2021/01/31 15:50:21;;;;;;;19.60;5.83;;;5.10;99.90;;;;;;4905958;29;20229;-86
2021/01/31 15:52:47;;;;;;;9.83;3.77;;;5.70;99.90;;;;;;4913631;29;20188;-87
2021/01/31 15:55:13;;;;;;;10.50;4.17;;;6.20;99.90;;;;;;4917311;29;20556;-87
2021/01/31 15:57:39;;;;;;;10.10;5.00;;;6.60;99.90;;;;;;4921650;29;20184;-84
2021/01/31 16:00:14;;;;;;;9.07;4.20;;;6.90;99.90;;;;;;4923229;29;20182;-88
2021/01/31 16:02:40;;;;;;;14.20;3.53;;;7.20;99.90;;;;;;4926551;29;20195;-86
2021/01/31 16:05:06;;;;;;;9.30;2.90;;;7.40;99.90;;;;;;4927610;29;20184;-88